createdAt,value
2024-01-25T00:03:57.481Z,101332.91
2024-01-25T00:08:59.867Z,101331.94
2024-01-25T00:14:02.450Z,101321.94
2024-01-25T00:19:04.734Z,101335.06
2024-01-25T00:24:07.080Z,101349.16
2024-01-25T00:29:09.487Z,101340.44
2024-01-25T00:34:12.230Z,101324.13
2024-01-25T00:39:14.910Z,101321.97
2024-01-25T00:44:17.445Z,101332.91
2024-01-25T00:49:20.021Z,101350.19
2024-01-25T00:54:22.679Z,101361.50
2024-01-25T00:59:25.165Z,101371.56
2024-01-25T01:04:28.084Z,101353.72
2024-01-25T01:09:36.949Z,101346.53
2024-01-25T01:14:39.089Z,101366.72
2024-01-25T01:19:41.341Z,101348.91
2024-01-25T01:24:43.708Z,101358.59
2024-01-25T01:29:49.203Z,101356.69
2024-01-25T01:34:51.499Z,101330.22
2024-01-25T01:39:57.443Z,101328.72
2024-01-25T01:44:59.633Z,101294.63
2024-01-25T01:50:03.141Z,101312.69
2024-01-25T01:55:06.505Z,101315.44
2024-01-25T02:00:12.861Z,101262.22
2024-01-25T02:05:15.175Z,101292.00
2024-01-25T02:10:18.175Z,101275.84
2024-01-25T02:15:21.353Z,101290.56
2024-01-25T02:20:27.271Z,101280.78
2024-01-25T02:25:29.666Z,101284.56
2024-01-25T02:30:35.380Z,101275.91
2024-01-25T02:35:39.371Z,101264.72
2024-01-25T02:40:41.744Z,101255.63
2024-01-25T02:45:44.027Z,101256.53
2024-01-25T02:50:46.621Z,101250.44
2024-01-25T02:55:49.027Z,101241.66
2024-01-25T03:00:56.796Z,101250.06
2024-01-25T03:05:59.141Z,101201.28
2024-01-25T03:11:01.726Z,101204.38
2024-01-25T03:16:04.177Z,101220.22
2024-01-25T03:21:06.566Z,101212.13
2024-01-25T03:26:08.710Z,101235.19
2024-01-25T03:31:11.098Z,101186.72
2024-01-25T03:36:16.884Z,101230.88
2024-01-25T03:41:19.275Z,101186.53
2024-01-25T03:46:21.631Z,101204.94
2024-01-25T03:51:25.483Z,101223.19
2024-01-25T03:56:28.335Z,101221.13
2024-01-25T04:01:32.313Z,101214.44
2024-01-25T04:06:34.880Z,101199.81
2024-01-25T04:11:39.023Z,101217.59
2024-01-25T04:16:42.219Z,101219.38
2024-01-25T04:21:44.758Z,101225.78
2024-01-25T04:26:47.269Z,101198.59
2024-01-25T04:31:50.036Z,101211.88
2024-01-25T04:36:52.539Z,101195.34
2024-01-25T04:41:54.831Z,101196.00
2024-01-25T04:46:57.992Z,101170.13
2024-01-25T04:52:00.394Z,101190.47
2024-01-25T04:57:03.994Z,101209.06
2024-01-25T05:02:06.539Z,101212.13
2024-01-25T05:07:09.049Z,101173.31
2024-01-25T05:12:11.227Z,101169.19
2024-01-25T05:17:14.561Z,101180.19
2024-01-25T05:22:17.926Z,101183.59
2024-01-25T05:27:20.948Z,101185.50
2024-01-25T05:32:24.065Z,101148.66
2024-01-25T05:37:26.282Z,101148.75
2024-01-25T05:42:30.378Z,101203.25
2024-01-25T05:47:34.385Z,101215.06
2024-01-25T05:52:38.966Z,101220.88
2024-01-25T05:57:41.385Z,101217.47
2024-01-25T06:02:44.968Z,101209.72
2024-01-25T06:07:47.508Z,101184.22
2024-01-25T06:12:50.043Z,101199.94
2024-01-25T06:17:52.854Z,101175.41
2024-01-25T06:22:55.308Z,101200.06
2024-01-25T06:27:58.678Z,101177.38
2024-01-25T06:33:01.129Z,101164.56
2024-01-25T06:38:03.451Z,101147.09
2024-01-25T06:43:05.821Z,101163.59
2024-01-25T06:48:10.296Z,101150.81
2024-01-25T06:53:12.414Z,101140.91
2024-01-25T06:58:14.698Z,101160.22
2024-01-25T07:03:17.342Z,101182.06
2024-01-25T07:08:19.907Z,101196.66
2024-01-25T07:13:22.633Z,101186.06
2024-01-25T07:18:26.226Z,101201.66
2024-01-25T07:23:28.548Z,101177.53
2024-01-25T07:28:30.941Z,101162.31
2024-01-25T07:33:33.487Z,101172.09
2024-01-25T07:38:35.666Z,101186.78
2024-01-25T07:43:37.838Z,101182.28
2024-01-25T07:48:40.421Z,101175.53
2024-01-25T07:53:43.086Z,101169.97
2024-01-25T07:58:45.304Z,101154.69
2024-01-25T08:03:47.583Z,101168.31
2024-01-25T08:08:50.179Z,101155.06
2024-01-25T08:13:52.634Z,101151.56
2024-01-25T08:18:55.385Z,101169.13
2024-01-25T08:23:58.316Z,101208.03
2024-01-25T08:29:00.568Z,101196.53
2024-01-25T08:34:03.124Z,101191.63
2024-01-25T08:39:06.655Z,101208.34
2024-01-25T08:44:08.820Z,101205.91
2024-01-25T08:49:13.700Z,101205.09
2024-01-25T08:54:16.018Z,101209.59
2024-01-25T08:59:18.209Z,101189.38
2024-01-25T09:04:22.249Z,101210.25
2024-01-25T09:09:26.023Z,101200.84
2024-01-25T09:14:28.226Z,101206.63
2024-01-25T09:19:30.662Z,101196.22
2024-01-25T09:24:33.019Z,101164.66
2024-01-25T09:29:35.315Z,101216.69
2024-01-25T09:34:41.410Z,101196.31
2024-01-25T09:39:44.379Z,101166.56
2024-01-25T09:44:46.801Z,101181.44
2024-01-25T09:49:49.526Z,101160.69
2024-01-25T09:54:55.872Z,101179.19
2024-01-25T09:59:58.438Z,101127.38
2024-01-25T10:05:00.902Z,101131.41
2024-01-25T10:10:03.208Z,101112.56
2024-01-25T10:15:06.572Z,101123.34
2024-01-25T10:20:12.528Z,101132.69
2024-01-25T10:25:18.476Z,101112.56
2024-01-25T10:30:21.725Z,101090.06
2024-01-25T10:35:27.790Z,101107.75
2024-01-25T10:40:30.850Z,101083.88
2024-01-25T10:45:33.410Z,101062.66
2024-01-25T10:50:36.193Z,101053.50
2024-01-25T10:55:38.785Z,101052.28
2024-01-25T11:00:41.394Z,101051.16
2024-01-25T11:05:44.302Z,101045.00
2024-01-25T11:10:52.330Z,101056.47
2024-01-25T11:15:55.005Z,101053.88
2024-01-25T11:21:02.057Z,101039.00
2024-01-25T11:26:04.442Z,100997.84
2024-01-25T11:31:06.849Z,101016.16
2024-01-25T11:36:09.241Z,101023.19
2024-01-25T11:41:11.668Z,100991.72
2024-01-25T11:46:15.551Z,100991.56
2024-01-25T11:51:17.796Z,100981.81
2024-01-25T11:56:24.571Z,100962.59
2024-01-25T12:01:27.700Z,100946.34
2024-01-25T12:06:31.477Z,100922.88
2024-01-25T12:11:33.720Z,100918.97
2024-01-25T12:16:38.305Z,100890.09
2024-01-25T12:21:45.588Z,100884.75
2024-01-25T12:26:48.810Z,100867.13
2024-01-25T12:31:51.022Z,100873.91
2024-01-25T12:36:54.021Z,100842.75
2024-01-25T12:41:56.511Z,100858.00
2024-01-25T12:47:02.902Z,100867.53
2024-01-25T12:52:05.738Z,100867.63
2024-01-25T12:57:09.417Z,100865.97
2024-01-25T13:02:13.683Z,100863.28
2024-01-25T13:07:16.315Z,100870.28
2024-01-25T13:12:18.570Z,100865.97
2024-01-25T13:17:22.795Z,100884.94
2024-01-25T13:22:25.951Z,100895.09
2024-01-25T13:27:28.650Z,100903.22
2024-01-25T13:32:30.970Z,100896.94
2024-01-25T13:37:33.402Z,100883.47
2024-01-25T13:42:35.715Z,100851.50
2024-01-25T13:47:38.118Z,100864.59
2024-01-25T13:52:40.375Z,100878.13
2024-01-25T13:57:42.630Z,100845.44
2024-01-25T14:02:46.627Z,100891.19
2024-01-25T14:07:48.907Z,100859.06
2024-01-25T14:12:52.707Z,100886.94
2024-01-25T14:17:55.208Z,100900.31
2024-01-25T14:22:57.614Z,100906.41
2024-01-25T14:28:00.220Z,100915.81
2024-01-25T14:33:05.125Z,100916.56
2024-01-25T14:38:08.030Z,100875.97
2024-01-25T14:43:10.226Z,100923.00
2024-01-25T14:48:13.191Z,100904.50
2024-01-25T14:53:15.621Z,100941.34
2024-01-25T14:58:23.750Z,100939.63
2024-01-25T15:03:29.192Z,100922.69
2024-01-25T15:08:31.636Z,100938.56
2024-01-25T15:13:34.136Z,100962.88
2024-01-25T15:18:36.592Z,100952.44
2024-01-25T15:23:38.901Z,100963.09
2024-01-25T15:28:41.113Z,100906.38
2024-01-25T15:33:43.530Z,100912.72
2024-01-25T15:38:45.879Z,100930.31
2024-01-25T15:43:48.069Z,100946.34
2024-01-25T15:48:52.594Z,100923.00
2024-01-25T15:53:54.868Z,100928.72
2024-01-25T15:58:57.048Z,100891.84
2024-01-25T16:03:59.325Z,100881.09
2024-01-25T16:09:05.146Z,100908.44
2024-01-25T16:14:07.382Z,100928.19
2024-01-25T16:19:09.700Z,100931.50
2024-01-25T16:24:12.002Z,100925.78
2024-01-25T16:29:14.930Z,100951.25
2024-01-25T16:34:17.357Z,100950.22
2024-01-25T16:39:19.908Z,100880.63
2024-01-25T16:44:22.470Z,100895.31
2024-01-25T16:49:25.041Z,100935.94
2024-01-25T16:54:27.497Z,100948.13
2024-01-25T16:59:31.433Z,100929.06
2024-01-25T17:04:33.711Z,100966.72
2024-01-25T17:09:35.909Z,100954.84
2024-01-25T17:14:38.611Z,101002.72
2024-01-25T17:19:41.429Z,101015.16
2024-01-25T17:24:43.862Z,100933.31
2024-01-25T17:29:49.565Z,101037.78
2024-01-25T17:35:17.896Z,101012.50
2024-01-25T17:40:18.400Z,101012.00
2024-01-25T17:45:20.912Z,100969.13
2024-01-25T17:50:43.986Z,100978.31
2024-01-25T17:55:49.363Z,101011.13
2024-01-25T18:00:51.921Z,101026.69
2024-01-25T18:05:55.487Z,101053.78
2024-01-25T18:11:00.858Z,100999.47
2024-01-25T18:16:13.139Z,100975.69
2024-01-25T18:21:15.581Z,101032.13
2024-01-25T18:26:18.030Z,100996.34
2024-01-25T18:31:20.542Z,101076.50
2024-01-25T18:36:22.846Z,101035.31
2024-01-25T18:41:25.328Z,101029.34
2024-01-25T18:46:27.728Z,101035.44
2024-01-25T18:51:30.219Z,101052.53
2024-01-25T18:56:32.767Z,101034.69
2024-01-25T19:01:35.716Z,101088.97
2024-01-25T19:06:39.226Z,101086.63
2024-01-25T19:11:41.449Z,101096.69
2024-01-25T19:16:45.495Z,101084.28
2024-01-25T19:21:48.869Z,101060.25
2024-01-25T19:26:51.113Z,101032.69
2024-01-25T19:31:54.120Z,100991.06
2024-01-25T19:36:56.407Z,101070.19
2024-01-25T19:41:58.880Z,101094.47
2024-01-25T19:47:01.097Z,101069.69
2024-01-25T19:52:05.030Z,101095.97
2024-01-25T19:57:07.736Z,101108.66
2024-01-25T20:02:10.491Z,101104.13
2024-01-25T20:07:13.144Z,101120.53
2024-01-25T20:12:15.404Z,101120.81
2024-01-25T20:17:19.576Z,101114.41
2024-01-25T20:22:21.903Z,101102.56
2024-01-25T20:27:24.161Z,101102.97
2024-01-25T20:32:28.807Z,101119.16
2024-01-25T20:37:31.186Z,101126.63
2024-01-25T20:42:33.412Z,101107.09
2024-01-25T20:47:35.677Z,101106.94
2024-01-25T20:52:37.838Z,101113.38
2024-01-25T20:57:39.988Z,101121.88
2024-01-25T21:02:42.496Z,101130.66
2024-01-25T21:07:45.133Z,101144.16
2024-01-25T21:12:47.607Z,101133.03
2024-01-25T21:17:49.961Z,101126.88
2024-01-25T21:22:52.350Z,101155.47
2024-01-25T21:27:55.438Z,101170.56
2024-01-25T21:32:57.648Z,101178.69
2024-01-25T21:38:00.091Z,101156.13
2024-01-25T21:43:02.997Z,101169.28
2024-01-25T21:48:10.840Z,101133.38
2024-01-25T21:53:13.344Z,101161.16
2024-01-25T21:58:15.723Z,101144.75
2024-01-25T22:03:18.114Z,101146.41
2024-01-25T22:08:20.974Z,101143.50
2024-01-25T22:13:23.147Z,101145.66
2024-01-25T22:18:25.399Z,101142.72
2024-01-25T22:23:28.675Z,101131.84
2024-01-25T22:28:30.911Z,101160.47
2024-01-25T22:33:33.164Z,101152.94
2024-01-25T22:38:35.520Z,101151.78
2024-01-25T22:43:40.757Z,101165.50
2024-01-25T22:48:43.042Z,101142.13
2024-01-25T22:53:45.254Z,101139.69
2024-01-25T22:58:48.751Z,101137.28
2024-01-25T23:03:58.657Z,101115.84
2024-01-25T23:09:01.236Z,101120.50
2024-01-25T23:14:06.474Z,101132.72
2024-01-25T23:19:22.858Z,101146.09
2024-01-25T23:24:27.480Z,101061.19
2024-01-25T23:29:30.163Z,101026.03
2024-01-25T23:34:34.055Z,101119.41
2024-01-25T23:39:36.783Z,101125.13
2024-01-25T23:44:39.194Z,101081.00
2024-01-25T23:49:45.359Z,101139.41
2024-01-25T23:54:47.980Z,101059.75
2024-01-25T23:59:50.471Z,101120.19
